WetterOnline ( https://www.wetteronline.at )

Wetter aktuell Greifswalder Bodden

Aktuelles Wetter: Greifswalder Oie (12m)

6-stündlich | Neueste Meldungen
Ortszeit Temperatur Wetter
Do, 25.07. 8:00 16.8° C wolkenlos
Do, 25.07. 2:00 17.3° C wolkenlos
Mi, 24.07. 20:00 19.9° C wolkenlos
Mi, 24.07. 14:00 19.6° C -
Mi, 24.07. 8:00 18.2° C bedeckt
Mi, 24.07. 2:00 17.9° C bewölkt
Di, 23.07. 20:00 18.9° C leichter Regen
Di, 23.07. 14:00 22.6° C wolkenlos
Ortszeit Temperatur Wetter
Do, 25.07. 12:00 17.6° C fast wolkenlos
Do, 25.07. 11:50 17.6° C fast wolkenlos
Do, 25.07. 11:40 18.0° C wolkenlos
Do, 25.07. 11:30 17.8° C leicht bewölkt
Do, 25.07. 11:20 17.8° C leicht bewölkt
Do, 25.07. 11:10 18.1° C leicht bewölkt
Do, 25.07. 11:00 17.4° C leicht bewölkt
Do, 25.07. 10:30 17.2° C wolkenlos
Do, 25.07. 10:00 17.0° C fast wolkenlos
Do, 25.07. 9:30 16.9° C leicht bewölkt
Do, 25.07. 9:00 16.6° C wolkig
Ortszeit Relative Feuchte Sichtweite
Do, 25.07. 8:00 64% 50 km
Do, 25.07. 2:00 76% 45 km
Mi, 24.07. 20:00 62% 45 km
Mi, 24.07. 14:00 71% 35 km
Mi, 24.07. 8:00 92% 19 km
Mi, 24.07. 2:00 94% 25 km
Di, 23.07. 20:00 92% 18 km
Di, 23.07. 14:00 71% 65 km
Ortszeit Relative Feuchte Sichtweite
Do, 25.07. 12:00 66% 55 km
Do, 25.07. 11:50 66% -
Do, 25.07. 11:40 67% -
Do, 25.07. 11:30 62% 55 km
Do, 25.07. 11:20 62% -
Do, 25.07. 11:10 64% -
Do, 25.07. 11:00 65% >70 km
Do, 25.07. 10:30 67% 50 km
Do, 25.07. 10:00 66% 50 km
Do, 25.07. 9:30 66% 55 km
Do, 25.07. 9:00 67% 50 km
Ortszeit Niederschlagsmenge Niederschlagsart
Do, 25.07. 8:00 0.0 l/m2 in 12 Std. -
Do, 25.07. 2:00 0.0 l/m2 in 6 Std. -
Mi, 24.07. 20:00 0.0 l/m2 in 3 Std. -
Mi, 24.07. 14:00 0.1 l/m2 in 6 Std. -
Mi, 24.07. 8:00 0.4 l/m2 in 12 Std. Regen
Mi, 24.07. 2:00 0.4 l/m2 in 6 Std. Regen
Di, 23.07. 20:00 3 l/m2 in 3 Std. Regen, Niederschlag
Di, 23.07. 14:00 0.0 l/m2 in 6 Std. -
Ortszeit Niederschlagsmenge Niederschlagsart
Do, 25.07. 12:00 0.0 l/m2 in 1 Std. -
Do, 25.07. 11:50 keine Meldung -
Do, 25.07. 11:40 keine Meldung -
Do, 25.07. 11:30 0.0 l/m2 in 30 Min -
Do, 25.07. 11:20 keine Meldung -
Do, 25.07. 11:10 keine Meldung -
Do, 25.07. 11:00 0.0 l/m2 in 1 Std. -
Do, 25.07. 10:30 0.0 l/m2 in 30 Min -
Do, 25.07. 10:00 0.0 l/m2 in 1 Std. -
Do, 25.07. 9:30 0.0 l/m2 in 30 Min -
Do, 25.07. 9:00 0.0 l/m2 in 1 Std. -
Ortszeit Stärke Spitze Richtung
km/h Bft. km/h Grad Sektor
Do, 25.07. 8:00 24 4 41 290° W
Do, 25.07. 2:00 32 5 50 300° NW
Mi, 24.07. 20:00 43 6 58 300° NW
Mi, 24.07. 14:00 36 5 47 290° W
Mi, 24.07. 8:00 28 4 37 260° W
Mi, 24.07. 2:00 26 4 31 240° SW
Di, 23.07. 20:00 20 4 59 260° W
Di, 23.07. 14:00 15 3 24 120° SO
Ortszeit Stärke Spitze Richtung
km/h Bft. km/h Grad Sektor
Do, 25.07. 12:00 22 4 31 280° W
Do, 25.07. 11:50 22 4 - 280° W
Do, 25.07. 11:40 22 4 - 270° W
Do, 25.07. 11:30 18 3 25 280° W
Do, 25.07. 11:20 18 3 - 280° W
Do, 25.07. 11:10 14 3 - 270° W
Do, 25.07. 11:00 18 3 32 270° W
Do, 25.07. 10:30 24 4 33 270° W
Do, 25.07. 10:00 29 5 36 270° W
Do, 25.07. 9:30 26 4 33 280° W
Do, 25.07. 9:00 26 4 37 290° W
Ortszeit Untergrenze Bedeckung Gattung
total tief tief mittel hoch
Do, 25.07. 8:00 - 0/8 0/8 - - -
Do, 25.07. 2:00 - 0/8 0/8 - - -
Mi, 24.07. 20:00 - 0/8 0/8 - - -
Mi, 24.07. 14:00 - - - - - -
Mi, 24.07. 8:00 180 m 8/8 8/8 - - -
Mi, 24.07. 2:00 300 m 7/8 7/8 - - -
Di, 23.07. 20:00 1800 m 7/8 7/8 - - -
Di, 23.07. 14:00 - 0/8 0/8 - - -
Ortszeit Bedeckungsgrad in Achtel und Wolkenuntergrenze
Do, 25.07. 12:00 1(1020m)
Do, 25.07. 11:50 1(1020m) 1(1230m)
Do, 25.07. 11:40 keine Wolken
Do, 25.07. 11:30 2(1200m)
Do, 25.07. 11:20 2(1200m)
Do, 25.07. 11:10 4
Do, 25.07. 11:00 2(1200m)
Do, 25.07. 10:30 keine Wolken
Do, 25.07. 10:00 1(1230m)
Do, 25.07. 9:30 4(1230m)
Do, 25.07. 9:00 1(870m) 5(1230m)
Ortszeit Luftdruck NN (hPa) Tendenz (hPa in 3 Std.)
Do, 25.07. 8:00 1015 0,0
Do, 25.07. 2:00 1015 0,0
Mi, 24.07. 20:00 1015 + 0,4
Mi, 24.07. 14:00 1015 + 0,4
Mi, 24.07. 8:00 1013 + 0,1
Mi, 24.07. 2:00 1014 + 0,3
Di, 23.07. 20:00 1014 + 0,8
Di, 23.07. 14:00 1016 - 1,2
Ortszeit Luftdruck NN (hPa) Tendenz (hPa in 3 Std.)
Do, 25.07. 12:00 1015 + 0,2
Do, 25.07. 11:50 1015 keine Meldung
Do, 25.07. 11:40 1015 keine Meldung
Do, 25.07. 11:30 1015 + 0,2
Do, 25.07. 11:20 1015 keine Meldung
Do, 25.07. 11:10 1015 keine Meldung
Do, 25.07. 11:00 1015 + 0,1
Do, 25.07. 10:30 1015 + 0,1
Do, 25.07. 10:00 1015 + 0,3
Do, 25.07. 9:30 1015 + 0,1
Do, 25.07. 9:00 1015 0,0
Ortszeit Schneehöhe (cm)
Do, 25.07. 8:00 0
Do, 25.07. 2:00 0
Mi, 24.07. 20:00 0
Mi, 24.07. 14:00 0
Mi, 24.07. 8:00 0
Mi, 24.07. 2:00 0
Di, 23.07. 20:00 0
Di, 23.07. 14:00 0
Ortszeit Schneehöhe (cm)
Do, 25.07. 12:00 0
Do, 25.07. 11:50 0
Do, 25.07. 11:40 -
Do, 25.07. 11:30 0
Do, 25.07. 11:20 0
Do, 25.07. 11:10 -
Do, 25.07. 11:00 0
Do, 25.07. 10:30 0
Do, 25.07. 10:00 0
Do, 25.07. 9:30 0
Do, 25.07. 9:00 0
Link zu dieser Seite / Seite empfehlen

Das Wetter in ...